sensor_id;sensor_type;location;lat;lon;timestamp;P1;durP1;ratioP1;P2;durP2;ratioP2
22937;SDS011;11634;42.734;23.298;2024-03-02T00:02:06;44.72;;;30.33;;
22937;SDS011;11634;42.734;23.298;2024-03-02T00:04:31;45.75;;;30.67;;
22937;SDS011;11634;42.734;23.298;2024-03-02T00:06:57;46.75;;;31.00;;
22937;SDS011;11634;42.734;23.298;2024-03-02T00:09:22;42.67;;;30.42;;
22937;SDS011;11634;42.734;23.298;2024-03-02T00:11:48;46.35;;;30.58;;
22937;SDS011;11634;42.734;23.298;2024-03-02T00:14:13;45.25;;;30.27;;
22937;SDS011;11634;42.734;23.298;2024-03-02T00:16:39;44.88;;;31.02;;
22937;SDS011;11634;42.734;23.298;2024-03-02T00:19:05;45.92;;;28.88;;
22937;SDS011;11634;42.734;23.298;2024-03-02T00:21:34;42.50;;;26.70;;
22937;SDS011;11634;42.734;23.298;2024-03-02T00:24:00;44.00;;;27.70;;
22937;SDS011;11634;42.734;23.298;2024-03-02T00:26:27;41.65;;;28.73;;
22937;SDS011;11634;42.734;23.298;2024-03-02T00:28:54;45.30;;;29.40;;
22937;SDS011;11634;42.734;23.298;2024-03-02T00:31:22;42.95;;;28.92;;
22937;SDS011;11634;42.734;23.298;2024-03-02T00:33:48;37.17;;;26.40;;
22937;SDS011;11634;42.734;23.298;2024-03-02T00:36:14;40.97;;;28.13;;
22937;SDS011;11634;42.734;23.298;2024-03-02T00:41:09;40.47;;;28.33;;
22937;SDS011;11634;42.734;23.298;2024-03-02T00:46:27;41.90;;;27.17;;
22937;SDS011;11634;42.734;23.298;2024-03-02T00:48:54;44.33;;;28.77;;
22937;SDS011;11634;42.734;23.298;2024-03-02T00:51:24;37.13;;;27.27;;
22937;SDS011;11634;42.734;23.298;2024-03-02T00:53:52;40.78;;;27.38;;
22937;SDS011;11634;42.734;23.298;2024-03-02T00:56:18;39.33;;;27.40;;
22937;SDS011;11634;42.734;23.298;2024-03-02T00:58:44;40.50;;;27.15;;
22937;SDS011;11634;42.734;23.298;2024-03-02T01:01:10;41.20;;;26.73;;
22937;SDS011;11634;42.734;23.298;2024-03-02T01:03:35;42.20;;;26.13;;
22937;SDS011;11634;42.734;23.298;2024-03-02T01:06:05;38.97;;;25.02;;
22937;SDS011;11634;42.734;23.298;2024-03-02T01:08:33;39.78;;;27.65;;
22937;SDS011;11634;42.734;23.298;2024-03-02T01:10:58;40.50;;;27.02;;
22937;SDS011;11634;42.734;23.298;2024-03-02T01:13:24;39.35;;;25.45;;
22937;SDS011;11634;42.734;23.298;2024-03-02T01:15:49;39.05;;;27.70;;
22937;SDS011;11634;42.734;23.298;2024-03-02T01:18:15;41.90;;;27.00;;
22937;SDS011;11634;42.734;23.298;2024-03-02T01:20:41;39.25;;;26.15;;
22937;SDS011;11634;42.734;23.298;2024-03-02T01:23:06;39.58;;;25.30;;
22937;SDS011;11634;42.734;23.298;2024-03-02T01:25:32;37.78;;;23.38;;
22937;SDS011;11634;42.734;23.298;2024-03-02T01:27:57;39.50;;;26.98;;
22937;SDS011;11634;42.734;23.298;2024-03-02T01:30:23;39.25;;;27.17;;
22937;SDS011;11634;42.734;23.298;2024-03-02T01:32:49;38.88;;;27.48;;
22937;SDS011;11634;42.734;23.298;2024-03-02T01:35:15;36.55;;;23.75;;
22937;SDS011;11634;42.734;23.298;2024-03-02T01:37:41;43.20;;;26.58;;
22937;SDS011;11634;42.734;23.298;2024-03-02T01:40:06;40.03;;;25.40;;
22937;SDS011;11634;42.734;23.298;2024-03-02T01:42:35;36.00;;;25.70;;
22937;SDS011;11634;42.734;23.298;2024-03-02T01:45:01;40.92;;;26.60;;
22937;SDS011;11634;42.734;23.298;2024-03-02T01:47:26;40.15;;;24.98;;
22937;SDS011;11634;42.734;23.298;2024-03-02T01:49:52;36.22;;;25.10;;
22937;SDS011;11634;42.734;23.298;2024-03-02T01:52:17;39.13;;;25.83;;
22937;SDS011;11634;42.734;23.298;2024-03-02T01:54:43;43.10;;;26.05;;
22937;SDS011;11634;42.734;23.298;2024-03-02T01:57:09;39.50;;;24.23;;
22937;SDS011;11634;42.734;23.298;2024-03-02T01:59:35;37.67;;;24.73;;
22937;SDS011;11634;42.734;23.298;2024-03-02T02:02:00;39.08;;;26.95;;
22937;SDS011;11634;42.734;23.298;2024-03-02T02:04:26;43.58;;;28.42;;
22937;SDS011;11634;42.734;23.298;2024-03-02T02:06:53;40.60;;;27.95;;
22937;SDS011;11634;42.734;23.298;2024-03-02T02:09:19;41.13;;;26.27;;
22937;SDS011;11634;42.734;23.298;2024-03-02T02:11:44;40.00;;;25.80;;
22937;SDS011;11634;42.734;23.298;2024-03-02T02:14:10;40.25;;;25.52;;
22937;SDS011;11634;42.734;23.298;2024-03-02T02:16:36;42.55;;;30.00;;
22937;SDS011;11634;42.734;23.298;2024-03-02T02:19:02;43.55;;;28.70;;
22937;SDS011;11634;42.734;23.298;2024-03-02T02:21:28;39.28;;;25.50;;
22937;SDS011;11634;42.734;23.298;2024-03-02T02:23:54;40.65;;;25.90;;
22937;SDS011;11634;42.734;23.298;2024-03-02T02:26:19;43.03;;;28.80;;
22937;SDS011;11634;42.734;23.298;2024-03-02T02:28:44;41.78;;;27.17;;
22937;SDS011;11634;42.734;23.298;2024-03-02T02:31:12;39.28;;;23.40;;
22937;SDS011;11634;42.734;23.298;2024-03-02T02:33:41;39.33;;;26.20;;
22937;SDS011;11634;42.734;23.298;2024-03-02T02:36:07;36.75;;;24.58;;
22937;SDS011;11634;42.734;23.298;2024-03-02T02:38:33;39.72;;;26.88;;
22937;SDS011;11634;42.734;23.298;2024-03-02T02:41:00;45.85;;;29.85;;
22937;SDS011;11634;42.734;23.298;2024-03-02T02:43:26;45.03;;;29.05;;
22937;SDS011;11634;42.734;23.298;2024-03-02T02:45:51;41.90;;;28.40;;
22937;SDS011;11634;42.734;23.298;2024-03-02T02:48:17;46.03;;;29.35;;
22937;SDS011;11634;42.734;23.298;2024-03-02T02:50:42;44.65;;;29.98;;
22937;SDS011;11634;42.734;23.298;2024-03-02T02:53:08;40.88;;;28.90;;
22937;SDS011;11634;42.734;23.298;2024-03-02T02:55:35;42.95;;;29.40;;
22937;SDS011;11634;42.734;23.298;2024-03-02T02:58:11;44.95;;;30.15;;
22937;SDS011;11634;42.734;23.298;2024-03-02T03:00:36;45.60;;;30.73;;
22937;SDS011;11634;42.734;23.298;2024-03-02T03:03:02;37.47;;;28.10;;
22937;SDS011;11634;42.734;23.298;2024-03-02T03:05:27;41.95;;;26.30;;
22937;SDS011;11634;42.734;23.298;2024-03-02T03:07:53;39.20;;;27.77;;
22937;SDS011;11634;42.734;23.298;2024-03-02T03:10:18;40.28;;;28.40;;
22937;SDS011;11634;42.734;23.298;2024-03-02T03:12:47;41.63;;;28.10;;
22937;SDS011;11634;42.734;23.298;2024-03-02T03:15:13;38.67;;;28.25;;
22937;SDS011;11634;42.734;23.298;2024-03-02T03:17:38;40.25;;;28.83;;
22937;SDS011;11634;42.734;23.298;2024-03-02T03:20:05;42.30;;;28.45;;
22937;SDS011;11634;42.734;23.298;2024-03-02T03:22:31;41.47;;;27.45;;
22937;SDS011;11634;42.734;23.298;2024-03-02T03:24:57;37.22;;;26.40;;
22937;SDS011;11634;42.734;23.298;2024-03-02T03:27:23;37.88;;;27.52;;
22937;SDS011;11634;42.734;23.298;2024-03-02T03:29:48;39.50;;;26.92;;
22937;SDS011;11634;42.734;23.298;2024-03-02T03:32:14;39.17;;;26.52;;
22937;SDS011;11634;42.734;23.298;2024-03-02T03:34:39;38.25;;;27.05;;
22937;SDS011;11634;42.734;23.298;2024-03-02T03:37:05;41.70;;;27.67;;
22937;SDS011;11634;42.734;23.298;2024-03-02T03:39:35;41.85;;;28.70;;
22937;SDS011;11634;42.734;23.298;2024-03-02T03:42:03;43.08;;;26.77;;
22937;SDS011;11634;42.734;23.298;2024-03-02T03:44:32;42.40;;;29.02;;
22937;SDS011;11634;42.734;23.298;2024-03-02T03:46:58;38.75;;;26.77;;
22937;SDS011;11634;42.734;23.298;2024-03-02T03:49:23;36.40;;;26.70;;
22937;SDS011;11634;42.734;23.298;2024-03-02T03:51:49;45.97;;;27.23;;
22937;SDS011;11634;42.734;23.298;2024-03-02T03:54:14;40.35;;;27.63;;
22937;SDS011;11634;42.734;23.298;2024-03-02T03:56:40;42.05;;;27.90;;
22937;SDS011;11634;42.734;23.298;2024-03-02T03:59:05;41.08;;;28.10;;
22937;SDS011;11634;42.734;23.298;2024-03-02T04:01:31;39.90;;;26.88;;
22937;SDS011;11634;42.734;23.298;2024-03-02T04:03:57;40.10;;;27.65;;
22937;SDS011;11634;42.734;23.298;2024-03-02T04:06:23;43.03;;;27.95;;
22937;SDS011;11634;42.734;23.298;2024-03-02T04:08:48;47.92;;;28.85;;
22937;SDS011;11634;42.734;23.298;2024-03-02T04:11:14;43.50;;;28.98;;
22937;SDS011;11634;42.734;23.298;2024-03-02T04:13:39;48.10;;;30.38;;
22937;SDS011;11634;42.734;23.298;2024-03-02T04:16:05;42.15;;;29.33;;
22937;SDS011;11634;42.734;23.298;2024-03-02T04:18:33;42.20;;;29.25;;
22937;SDS011;11634;42.734;23.298;2024-03-02T04:21:01;48.35;;;31.50;;
22937;SDS011;11634;42.734;23.298;2024-03-02T04:23:27;43.40;;;29.42;;
22937;SDS011;11634;42.734;23.298;2024-03-02T04:25:56;41.42;;;27.15;;
22937;SDS011;11634;42.734;23.298;2024-03-02T04:28:21;41.38;;;27.63;;
22937;SDS011;11634;42.734;23.298;2024-03-02T04:30:47;44.40;;;28.08;;
22937;SDS011;11634;42.734;23.298;2024-03-02T04:33:13;42.13;;;26.52;;
22937;SDS011;11634;42.734;23.298;2024-03-02T04:35:39;45.17;;;27.55;;
22937;SDS011;11634;42.734;23.298;2024-03-02T04:38:04;44.35;;;28.88;;
22937;SDS011;11634;42.734;23.298;2024-03-02T04:40:30;45.50;;;30.67;;
22937;SDS011;11634;42.734;23.298;2024-03-02T04:42:55;47.67;;;29.90;;
22937;SDS011;11634;42.734;23.298;2024-03-02T04:45:21;42.28;;;29.08;;
22937;SDS011;11634;42.734;23.298;2024-03-02T04:47:46;40.97;;;27.45;;
22937;SDS011;11634;42.734;23.298;2024-03-02T04:50:12;46.85;;;28.48;;
22937;SDS011;11634;42.734;23.298;2024-03-02T04:52:37;48.40;;;30.75;;
22937;SDS011;11634;42.734;23.298;2024-03-02T04:55:03;46.83;;;31.02;;
22937;SDS011;11634;42.734;23.298;2024-03-02T04:57:35;46.45;;;30.33;;
22937;SDS011;11634;42.734;23.298;2024-03-02T05:00:00;48.80;;;32.17;;
22937;SDS011;11634;42.734;23.298;2024-03-02T05:02:26;48.53;;;31.60;;
22937;SDS011;11634;42.734;23.298;2024-03-02T05:04:53;50.35;;;33.17;;
22937;SDS011;11634;42.734;23.298;2024-03-02T05:07:18;55.50;;;32.58;;
22937;SDS011;11634;42.734;23.298;2024-03-02T05:09:44;52.00;;;32.20;;
22937;SDS011;11634;42.734;23.298;2024-03-02T05:12:09;48.33;;;31.17;;
22937;SDS011;11634;42.734;23.298;2024-03-02T05:15:07;49.45;;;32.47;;
22937;SDS011;11634;42.734;23.298;2024-03-02T05:17:33;51.10;;;32.35;;
22937;SDS011;11634;42.734;23.298;2024-03-02T05:19:59;53.05;;;33.75;;
22937;SDS011;11634;42.734;23.298;2024-03-02T05:22:25;51.30;;;32.95;;
22937;SDS011;11634;42.734;23.298;2024-03-02T05:24:50;52.92;;;34.25;;
22937;SDS011;11634;42.734;23.298;2024-03-02T05:27:15;55.92;;;33.90;;
22937;SDS011;11634;42.734;23.298;2024-03-02T05:29:41;54.70;;;32.85;;
22937;SDS011;11634;42.734;23.298;2024-03-02T05:32:06;56.83;;;33.38;;
22937;SDS011;11634;42.734;23.298;2024-03-02T05:34:32;57.10;;;33.45;;
22937;SDS011;11634;42.734;23.298;2024-03-02T05:37:00;50.75;;;31.67;;
22937;SDS011;11634;42.734;23.298;2024-03-02T05:39:26;56.95;;;33.88;;
22937;SDS011;11634;42.734;23.298;2024-03-02T05:41:51;53.53;;;31.33;;
22937;SDS011;11634;42.734;23.298;2024-03-02T05:44:17;52.20;;;31.92;;
22937;SDS011;11634;42.734;23.298;2024-03-02T05:46:46;55.22;;;33.65;;
22937;SDS011;11634;42.734;23.298;2024-03-02T05:49:12;59.88;;;35.03;;
22937;SDS011;11634;42.734;23.298;2024-03-02T05:51:38;58.55;;;35.53;;
22937;SDS011;11634;42.734;23.298;2024-03-02T05:54:04;56.13;;;34.45;;
22937;SDS011;11634;42.734;23.298;2024-03-02T05:56:30;56.75;;;32.08;;
22937;SDS011;11634;42.734;23.298;2024-03-02T05:58:55;56.75;;;33.17;;
22937;SDS011;11634;42.734;23.298;2024-03-02T06:04:05;56.53;;;32.35;;
22937;SDS011;11634;42.734;23.298;2024-03-02T06:06:30;55.35;;;33.78;;
22937;SDS011;11634;42.734;23.298;2024-03-02T06:09:02;61.92;;;34.47;;
22937;SDS011;11634;42.734;23.298;2024-03-02T06:11:36;55.67;;;32.17;;
22937;SDS011;11634;42.734;23.298;2024-03-02T06:14:03;57.97;;;33.20;;
22937;SDS011;11634;42.734;23.298;2024-03-02T06:16:28;58.88;;;32.08;;
22937;SDS011;11634;42.734;23.298;2024-03-02T06:18:55;54.85;;;31.88;;
22937;SDS011;11634;42.734;23.298;2024-03-02T06:21:26;55.47;;;32.17;;
22937;SDS011;11634;42.734;23.298;2024-03-02T06:23:51;60.17;;;33.05;;
22937;SDS011;11634;42.734;23.298;2024-03-02T06:26:17;61.38;;;35.08;;
22937;SDS011;11634;42.734;23.298;2024-03-02T06:28:43;62.65;;;35.33;;
22937;SDS011;11634;42.734;23.298;2024-03-02T06:31:09;62.38;;;35.58;;
22937;SDS011;11634;42.734;23.298;2024-03-02T06:33:35;63.03;;;34.20;;
22937;SDS011;11634;42.734;23.298;2024-03-02T06:36:01;68.55;;;36.55;;
22937;SDS011;11634;42.734;23.298;2024-03-02T06:38:26;61.22;;;35.78;;
22937;SDS011;11634;42.734;23.298;2024-03-02T06:40:53;59.17;;;35.03;;
22937;SDS011;11634;42.734;23.298;2024-03-02T06:43:21;65.68;;;37.25;;
22937;SDS011;11634;42.734;23.298;2024-03-02T06:45:50;64.18;;;35.15;;
22937;SDS011;11634;42.734;23.298;2024-03-02T06:48:16;61.65;;;35.95;;
22937;SDS011;11634;42.734;23.298;2024-03-02T06:50:48;66.38;;;37.83;;
22937;SDS011;11634;42.734;23.298;2024-03-02T06:53:13;65.00;;;36.22;;
22937;SDS011;11634;42.734;23.298;2024-03-02T06:55:39;65.30;;;35.28;;
22937;SDS011;11634;42.734;23.298;2024-03-02T06:58:05;65.97;;;34.42;;
22937;SDS011;11634;42.734;23.298;2024-03-02T07:00:30;58.88;;;34.28;;
22937;SDS011;11634;42.734;23.298;2024-03-02T07:02:56;57.72;;;33.28;;
22937;SDS011;11634;42.734;23.298;2024-03-02T07:05:21;57.30;;;31.20;;
22937;SDS011;11634;42.734;23.298;2024-03-02T07:07:47;59.88;;;34.08;;
22937;SDS011;11634;42.734;23.298;2024-03-02T07:10:12;53.22;;;28.10;;
22937;SDS011;11634;42.734;23.298;2024-03-02T07:12:41;55.55;;;31.17;;
22937;SDS011;11634;42.734;23.298;2024-03-02T07:15:06;55.50;;;32.47;;
22937;SDS011;11634;42.734;23.298;2024-03-02T07:17:32;54.72;;;31.30;;
22937;SDS011;11634;42.734;23.298;2024-03-02T07:19:58;55.65;;;32.78;;
22937;SDS011;11634;42.734;23.298;2024-03-02T07:22:23;57.70;;;31.25;;
22937;SDS011;11634;42.734;23.298;2024-03-02T07:24:50;53.45;;;29.95;;
22937;SDS011;11634;42.734;23.298;2024-03-02T07:27:16;52.28;;;31.70;;
22937;SDS011;11634;42.734;23.298;2024-03-02T07:29:42;56.88;;;32.50;;
22937;SDS011;11634;42.734;23.298;2024-03-02T07:32:08;56.28;;;30.83;;
22937;SDS011;11634;42.734;23.298;2024-03-02T07:34:34;50.85;;;31.38;;
22937;SDS011;11634;42.734;23.298;2024-03-02T07:37:00;58.13;;;34.33;;
22937;SDS011;11634;42.734;23.298;2024-03-02T07:39:26;57.80;;;33.33;;
22937;SDS011;11634;42.734;23.298;2024-03-02T07:41:52;56.22;;;32.10;;
22937;SDS011;11634;42.734;23.298;2024-03-02T07:44:18;65.90;;;35.67;;
22937;SDS011;11634;42.734;23.298;2024-03-02T07:46:45;54.35;;;32.33;;
22937;SDS011;11634;42.734;23.298;2024-03-02T07:49:13;60.90;;;34.28;;
22937;SDS011;11634;42.734;23.298;2024-03-02T07:51:42;60.05;;;34.40;;
22937;SDS011;11634;42.734;23.298;2024-03-02T07:54:08;50.78;;;29.23;;
22937;SDS011;11634;42.734;23.298;2024-03-02T07:56:35;55.42;;;31.02;;
22937;SDS011;11634;42.734;23.298;2024-03-02T07:59:01;49.65;;;28.38;;
22937;SDS011;11634;42.734;23.298;2024-03-02T08:01:27;54.13;;;30.60;;
22937;SDS011;11634;42.734;23.298;2024-03-02T08:03:55;55.33;;;32.95;;
22937;SDS011;11634;42.734;23.298;2024-03-02T08:06:26;51.13;;;28.35;;
22937;SDS011;11634;42.734;23.298;2024-03-02T08:09:01;55.08;;;32.63;;
22937;SDS011;11634;42.734;23.298;2024-03-02T08:11:26;60.03;;;34.60;;
22937;SDS011;11634;42.734;23.298;2024-03-02T08:13:54;46.92;;;26.98;;
22937;SDS011;11634;42.734;23.298;2024-03-02T08:16:20;56.10;;;32.97;;
22937;SDS011;11634;42.734;23.298;2024-03-02T08:18:52;57.00;;;33.83;;
22937;SDS011;11634;42.734;23.298;2024-03-02T08:21:18;54.08;;;32.75;;
22937;SDS011;11634;42.734;23.298;2024-03-02T08:23:45;51.95;;;32.00;;
22937;SDS011;11634;42.734;23.298;2024-03-02T08:26:11;56.75;;;33.58;;
22937;SDS011;11634;42.734;23.298;2024-03-02T08:28:40;56.83;;;34.08;;
22937;SDS011;11634;42.734;23.298;2024-03-02T08:31:07;62.83;;;34.42;;
22937;SDS011;11634;42.734;23.298;2024-03-02T08:33:33;55.30;;;32.45;;
22937;SDS011;11634;42.734;23.298;2024-03-02T08:35:59;58.35;;;32.45;;
22937;SDS011;11634;42.734;23.298;2024-03-02T08:38:24;49.47;;;31.10;;
22937;SDS011;11634;42.734;23.298;2024-03-02T08:40:52;46.03;;;28.60;;
22937;SDS011;11634;42.734;23.298;2024-03-02T08:43:20;49.67;;;31.20;;
22937;SDS011;11634;42.734;23.298;2024-03-02T08:45:47;43.95;;;28.35;;
22937;SDS011;11634;42.734;23.298;2024-03-02T08:48:17;52.95;;;29.95;;
22937;SDS011;11634;42.734;23.298;2024-03-02T08:50:43;49.45;;;28.20;;
22937;SDS011;11634;42.734;23.298;2024-03-02T08:53:09;49.20;;;29.27;;
22937;SDS011;11634;42.734;23.298;2024-03-02T08:55:34;50.70;;;29.30;;
22937;SDS011;11634;42.734;23.298;2024-03-02T08:58:01;45.15;;;28.52;;
22937;SDS011;11634;42.734;23.298;2024-03-02T09:00:27;46.90;;;29.85;;
22937;SDS011;11634;42.734;23.298;2024-03-02T09:02:57;47.42;;;29.92;;
22937;SDS011;11634;42.734;23.298;2024-03-02T09:05:22;44.38;;;29.40;;
22937;SDS011;11634;42.734;23.298;2024-03-02T09:07:49;46.95;;;28.45;;
22937;SDS011;11634;42.734;23.298;2024-03-02T09:10:15;43.90;;;29.45;;
22937;SDS011;11634;42.734;23.298;2024-03-02T09:12:41;41.53;;;27.58;;
22937;SDS011;11634;42.734;23.298;2024-03-02T09:15:30;44.42;;;27.48;;
22937;SDS011;11634;42.734;23.298;2024-03-02T09:17:55;41.15;;;28.40;;
22937;SDS011;11634;42.734;23.298;2024-03-02T09:20:22;42.50;;;28.35;;
22937;SDS011;11634;42.734;23.298;2024-03-02T09:22:54;44.67;;;27.70;;
22937;SDS011;11634;42.734;23.298;2024-03-02T09:25:19;41.22;;;28.00;;
22937;SDS011;11634;42.734;23.298;2024-03-02T09:27:45;40.03;;;27.00;;
22937;SDS011;11634;42.734;23.298;2024-03-02T09:30:12;38.78;;;25.98;;
22937;SDS011;11634;42.734;23.298;2024-03-02T09:32:39;37.25;;;27.08;;
22937;SDS011;11634;42.734;23.298;2024-03-02T09:35:04;41.60;;;27.80;;
22937;SDS011;11634;42.734;23.298;2024-03-02T09:37:33;45.50;;;30.08;;
22937;SDS011;11634;42.734;23.298;2024-03-02T09:40:00;40.15;;;26.27;;
22937;SDS011;11634;42.734;23.298;2024-03-02T09:42:26;38.60;;;24.08;;
22937;SDS011;11634;42.734;23.298;2024-03-02T09:44:54;42.92;;;26.77;;
22937;SDS011;11634;42.734;23.298;2024-03-02T09:47:20;38.33;;;26.05;;
22937;SDS011;11634;42.734;23.298;2024-03-02T09:49:45;40.05;;;26.73;;
22937;SDS011;11634;42.734;23.298;2024-03-02T09:52:12;41.88;;;28.05;;
22937;SDS011;11634;42.734;23.298;2024-03-02T09:54:41;38.25;;;23.58;;
22937;SDS011;11634;42.734;23.298;2024-03-02T09:57:07;42.13;;;26.02;;
22937;SDS011;11634;42.734;23.298;2024-03-02T09:59:32;43.70;;;26.58;;
22937;SDS011;11634;42.734;23.298;2024-03-02T10:02:09;38.15;;;24.60;;
22937;SDS011;11634;42.734;23.298;2024-03-02T10:04:37;39.88;;;25.25;;
22937;SDS011;11634;42.734;23.298;2024-03-02T10:07:18;37.42;;;23.95;;
22937;SDS011;11634;42.734;23.298;2024-03-02T10:09:47;38.25;;;24.63;;
22937;SDS011;11634;42.734;23.298;2024-03-02T10:12:16;38.25;;;24.58;;
22937;SDS011;11634;42.734;23.298;2024-03-02T10:14:44;37.20;;;23.50;;
22937;SDS011;11634;42.734;23.298;2024-03-02T10:17:13;36.90;;;24.58;;
22937;SDS011;11634;42.734;23.298;2024-03-02T10:19:39;35.08;;;23.83;;
22937;SDS011;11634;42.734;23.298;2024-03-02T10:22:06;34.90;;;23.83;;
22937;SDS011;11634;42.734;23.298;2024-03-02T10:24:45;37.22;;;24.55;;
22937;SDS011;11634;42.734;23.298;2024-03-02T10:27:31;38.47;;;24.85;;
22937;SDS011;11634;42.734;23.298;2024-03-02T10:29:56;39.80;;;24.92;;
22937;SDS011;11634;42.734;23.298;2024-03-02T10:32:22;40.15;;;27.10;;
22937;SDS011;11634;42.734;23.298;2024-03-02T10:34:49;41.83;;;28.75;;
22937;SDS011;11634;42.734;23.298;2024-03-02T10:37:25;39.55;;;25.73;;
22937;SDS011;11634;42.734;23.298;2024-03-02T10:40:00;40.58;;;25.83;;
22937;SDS011;11634;42.734;23.298;2024-03-02T10:42:32;39.28;;;26.42;;
22937;SDS011;11634;42.734;23.298;2024-03-02T10:44:57;33.92;;;23.95;;
22937;SDS011;11634;42.734;23.298;2024-03-02T10:47:24;39.47;;;26.25;;
22937;SDS011;11634;42.734;23.298;2024-03-02T10:49:55;36.00;;;23.83;;
22937;SDS011;11634;42.734;23.298;2024-03-02T10:52:30;38.03;;;24.48;;
22937;SDS011;11634;42.734;23.298;2024-03-02T10:54:55;30.20;;;22.60;;
22937;SDS011;11634;42.734;23.298;2024-03-02T11:00:20;33.88;;;23.90;;
22937;SDS011;11634;42.734;23.298;2024-03-02T11:03:02;37.28;;;24.30;;
22937;SDS011;11634;42.734;23.298;2024-03-02T11:05:40;36.58;;;23.65;;
22937;SDS011;11634;42.734;23.298;2024-03-02T11:08:17;31.05;;;21.52;;
22937;SDS011;11634;42.734;23.298;2024-03-02T11:10:57;28.55;;;20.85;;
22937;SDS011;11634;42.734;23.298;2024-03-02T11:13:35;32.60;;;21.80;;
22937;SDS011;11634;42.734;23.298;2024-03-02T11:16:17;30.45;;;21.10;;
22937;SDS011;11634;42.734;23.298;2024-03-02T11:18:48;30.98;;;21.92;;
22937;SDS011;11634;42.734;23.298;2024-03-02T11:21:37;32.70;;;22.05;;
22937;SDS011;11634;42.734;23.298;2024-03-02T11:32:59;30.98;;;22.45;;
22937;SDS011;11634;42.734;23.298;2024-03-02T11:35:39;30.27;;;21.83;;
22937;SDS011;11634;42.734;23.298;2024-03-02T11:38:27;29.52;;;20.50;;
22937;SDS011;11634;42.734;23.298;2024-03-02T11:40:55;28.20;;;20.08;;
22937;SDS011;11634;42.734;23.298;2024-03-02T11:43:21;29.42;;;19.48;;
22937;SDS011;11634;42.734;23.298;2024-03-02T11:46:00;26.38;;;18.92;;
22937;SDS011;11634;42.734;23.298;2024-03-02T11:48:26;27.90;;;19.55;;
22937;SDS011;11634;42.734;23.298;2024-03-02T11:50:52;25.73;;;17.70;;
22937;SDS011;11634;42.734;23.298;2024-03-02T11:53:18;28.13;;;19.20;;
22937;SDS011;11634;42.734;23.298;2024-03-02T11:55:44;29.98;;;20.35;;
22937;SDS011;11634;42.734;23.298;2024-03-02T11:58:12;25.83;;;19.33;;
22937;SDS011;11634;42.734;23.298;2024-03-02T12:00:37;32.38;;;19.05;;
22937;SDS011;11634;42.734;23.298;2024-03-02T12:03:13;30.67;;;21.52;;
22937;SDS011;11634;42.734;23.298;2024-03-02T12:05:42;33.70;;;22.27;;
22937;SDS011;11634;42.734;23.298;2024-03-02T12:08:07;30.08;;;21.75;;
22937;SDS011;11634;42.734;23.298;2024-03-02T12:10:42;32.08;;;21.75;;
22937;SDS011;11634;42.734;23.298;2024-03-02T12:13:09;29.88;;;20.17;;
22937;SDS011;11634;42.734;23.298;2024-03-02T12:15:37;29.52;;;20.70;;
22937;SDS011;11634;42.734;23.298;2024-03-02T12:18:05;26.40;;;19.25;;
22937;SDS011;11634;42.734;23.298;2024-03-02T12:20:36;25.67;;;17.92;;
22937;SDS011;11634;42.734;23.298;2024-03-02T12:23:04;25.55;;;18.15;;
22937;SDS011;11634;42.734;23.298;2024-03-02T12:25:31;28.20;;;18.88;;
22937;SDS011;11634;42.734;23.298;2024-03-02T12:27:59;25.20;;;18.35;;
22937;SDS011;11634;42.734;23.298;2024-03-02T12:30:27;26.98;;;19.52;;
22937;SDS011;11634;42.734;23.298;2024-03-02T12:32:54;26.63;;;17.77;;
22937;SDS011;11634;42.734;23.298;2024-03-02T12:35:19;28.27;;;19.02;;
22937;SDS011;11634;42.734;23.298;2024-03-02T12:37:47;24.60;;;17.45;;
22937;SDS011;11634;42.734;23.298;2024-03-02T12:40:14;25.52;;;18.65;;
22937;SDS011;11634;42.734;23.298;2024-03-02T12:42:40;26.48;;;19.48;;
22937;SDS011;11634;42.734;23.298;2024-03-02T12:45:10;29.40;;;20.58;;
22937;SDS011;11634;42.734;23.298;2024-03-02T12:47:36;27.80;;;19.20;;
22937;SDS011;11634;42.734;23.298;2024-03-02T12:50:04;24.75;;;17.45;;
22937;SDS011;11634;42.734;23.298;2024-03-02T12:52:30;23.05;;;17.77;;
22937;SDS011;11634;42.734;23.298;2024-03-02T12:55:00;22.73;;;16.88;;
22937;SDS011;11634;42.734;23.298;2024-03-02T12:57:29;22.88;;;17.42;;
22937;SDS011;11634;42.734;23.298;2024-03-02T12:59:58;23.65;;;17.60;;
22937;SDS011;11634;42.734;23.298;2024-03-02T13:02:27;24.55;;;18.25;;
22937;SDS011;11634;42.734;23.298;2024-03-02T13:04:54;25.58;;;18.45;;
22937;SDS011;11634;42.734;23.298;2024-03-02T13:07:20;23.27;;;17.42;;
22937;SDS011;11634;42.734;23.298;2024-03-02T13:09:48;24.63;;;17.58;;
22937;SDS011;11634;42.734;23.298;2024-03-02T13:12:14;26.10;;;17.63;;
22937;SDS011;11634;42.734;23.298;2024-03-02T13:14:43;23.52;;;17.92;;
22937;SDS011;11634;42.734;23.298;2024-03-02T13:17:09;21.58;;;16.60;;
22937;SDS011;11634;42.734;23.298;2024-03-02T13:19:34;24.38;;;17.27;;
22937;SDS011;11634;42.734;23.298;2024-03-02T13:22:00;24.33;;;18.15;;
22937;SDS011;11634;42.734;23.298;2024-03-02T13:24:29;22.75;;;17.63;;
22937;SDS011;11634;42.734;23.298;2024-03-02T13:26:58;22.65;;;17.35;;
22937;SDS011;11634;42.734;23.298;2024-03-02T13:29:27;25.33;;;18.52;;
22937;SDS011;11634;42.734;23.298;2024-03-02T13:31:53;22.17;;;17.88;;
22937;SDS011;11634;42.734;23.298;2024-03-02T13:34:23;26.25;;;19.13;;
22937;SDS011;11634;42.734;23.298;2024-03-02T13:36:48;23.52;;;17.30;;
22937;SDS011;11634;42.734;23.298;2024-03-02T13:39:14;22.77;;;17.88;;
22937;SDS011;11634;42.734;23.298;2024-03-02T13:41:40;23.52;;;17.63;;
22937;SDS011;11634;42.734;23.298;2024-03-02T13:44:06;22.30;;;17.30;;
22937;SDS011;11634;42.734;23.298;2024-03-02T13:46:31;23.25;;;18.35;;
22937;SDS011;11634;42.734;23.298;2024-03-02T13:49:11;21.95;;;17.27;;
22937;SDS011;11634;42.734;23.298;2024-03-02T13:51:37;23.35;;;18.00;;
22937;SDS011;11634;42.734;23.298;2024-03-02T13:54:02;22.60;;;16.65;;
22937;SDS011;11634;42.734;23.298;2024-03-02T13:56:31;21.70;;;17.42;;
22937;SDS011;11634;42.734;23.298;2024-03-02T13:58:58;21.67;;;17.55;;
22937;SDS011;11634;42.734;23.298;2024-03-02T14:01:23;23.13;;;17.55;;
22937;SDS011;11634;42.734;23.298;2024-03-02T14:03:49;23.77;;;17.75;;
22937;SDS011;11634;42.734;23.298;2024-03-02T14:06:14;22.67;;;17.52;;
22937;SDS011;11634;42.734;23.298;2024-03-02T14:08:43;23.42;;;17.95;;
22937;SDS011;11634;42.734;23.298;2024-03-02T14:11:10;22.77;;;17.25;;
22937;SDS011;11634;42.734;23.298;2024-03-02T14:13:43;24.05;;;18.10;;
22937;SDS011;11634;42.734;23.298;2024-03-02T14:16:12;21.88;;;17.42;;
22937;SDS011;11634;42.734;23.298;2024-03-02T14:18:38;23.23;;;17.77;;
22937;SDS011;11634;42.734;23.298;2024-03-02T14:21:07;22.95;;;17.17;;
22937;SDS011;11634;42.734;23.298;2024-03-02T14:23:32;23.33;;;17.95;;
22937;SDS011;11634;42.734;23.298;2024-03-02T14:25:58;24.33;;;18.38;;
22937;SDS011;11634;42.734;23.298;2024-03-02T14:28:24;21.75;;;18.00;;
22937;SDS011;11634;42.734;23.298;2024-03-02T14:30:49;25.15;;;18.45;;